Airfield :
LOGIN :

Register | Disclaimer

   EN    FR    IT 

 










Legend :    VFR   Marginal VFR   IFR   Intensive IFR   Very Intensive IFR
Visi :
Ceiling :
>= 8 km
>= 3000ft
5 to 8 km
1000 to 3000 ft
1500m to 5 km
500 to 1000 ft
800 to 1500m
200 to 500 ft
< 800m
< 200 ft
Symbols :   Thunderstorms  Fog  Heavy snow  Heavy precipitations  Wind > 20 kt
SIGMETs :     Misc.  Thunderstorms  Icing  Turbulence  Mountain Waves  Volcanic Ashes







- Airport Elevation : 39 ft
- IATA code : TRS


LIPQ - Friuli Venezia Giulia Apt. Trieste

CURRENT METAR :
  • 200720Z 34003KT 300V360 9999 FEW070 20/14 Q1017

EXPIRED METARs :
  • 200650Z 33003KT 300V360 9999 FEW080 19/15 Q1017
  • 200620Z VRB02KT 9999 FEW080 18/15 Q1016
  • 200550Z VRB02KT 9999 FEW070 17/14 Q1016
  • 200520Z 11003KT 050V140 9999 FEW060 16/15 Q1016
  • 200450Z 10002KT 9999 FEW060 15/14 Q1016

TAF TAF LIPQ
Valid from the 20 at 06:00 until the 21 at 06:00 UTC


200500Z 2006/2106 VRB05KT 9999 SCT030
No reported NOTAMs for that airfield.
1 SIGMET reported for the Milano FIR (LIMM) :
 
Severe turbulence
LIMM SIGMET 2 VALID 200705/201105 LIMM- LIMM MILANO FIR SEV TURB FCST E OF LINE N4655 E01011 - N4326 E01216 FL270/380 MOV E WKN=



MET'MAP, your aeronautical weather chart ! - Copyright ORBIFLY December 2007 - Disclaimer

ORBIFLY MET'MAP TEAM :

Programming & Development : Alexandra Zaïnal
Concept & Development : Baudouin d'Aumeries
Co-Development & Prog : Marc-Olivier Méhu
Technical & hardware support : Manuel Goepfert

Contact : metmap@orbifly.com




SOURCES & CREDITS :

   NOAA